createdAt,value
2023-07-28T00:00:46.593Z,3.78
2023-07-28T00:03:15.086Z,3.92
2023-07-28T00:05:51.659Z,3.70
2023-07-28T00:08:20.376Z,3.53
2023-07-28T00:10:48.586Z,3.67
2023-07-28T00:13:16.834Z,3.53
2023-07-28T00:15:46.497Z,3.45
2023-07-28T00:18:14.716Z,3.50
2023-07-28T00:20:43.070Z,3.55
2023-07-28T00:23:11.357Z,3.95
2023-07-28T00:25:39.772Z,3.45
2023-07-28T00:28:08.065Z,3.90
2023-07-28T00:30:36.570Z,4.25
2023-07-28T00:33:06.414Z,4.00
2023-07-28T00:35:34.794Z,3.60
2023-07-28T00:38:03.347Z,3.80
2023-07-28T00:40:31.667Z,3.78
2023-07-28T00:42:59.945Z,3.55
2023-07-28T00:45:28.367Z,3.83
2023-07-28T00:47:59.098Z,4.00
2023-07-28T00:50:29.509Z,3.95
2023-07-28T00:52:58.151Z,3.70
2023-07-28T00:55:26.568Z,3.78
2023-07-28T00:57:54.858Z,3.83
2023-07-28T01:00:23.142Z,4.32
2023-07-28T01:02:51.436Z,3.85
2023-07-28T01:05:20.078Z,3.50
2023-07-28T01:08:03.048Z,3.78
2023-07-28T01:10:33.887Z,3.67
2023-07-28T01:13:02.313Z,3.92
2023-07-28T01:15:30.701Z,3.83
2023-07-28T01:17:59.187Z,3.50
2023-07-28T01:20:32.453Z,4.30
2023-07-28T01:23:11.294Z,3.60
2023-07-28T01:25:51.648Z,3.90
2023-07-28T01:28:21.743Z,3.42
2023-07-28T01:30:50.487Z,3.90
2023-07-28T01:33:18.770Z,3.50
2023-07-28T01:35:47.313Z,4.00
2023-07-28T01:38:15.570Z,3.85
2023-07-28T01:40:43.955Z,3.67
2023-07-28T01:43:12.463Z,3.40
2023-07-28T01:45:42.079Z,4.15
2023-07-28T01:48:10.755Z,3.47
2023-07-28T01:50:39.036Z,3.78
2023-07-28T01:53:09.211Z,3.55
2023-07-28T01:55:37.486Z,3.72
2023-07-28T01:58:06.008Z,3.38
2023-07-28T02:00:34.362Z,3.78
2023-07-28T02:03:04.785Z,3.97
2023-07-28T02:05:33.541Z,3.83
2023-07-28T02:08:02.434Z,4.00
2023-07-28T02:10:31.659Z,3.88
2023-07-28T02:13:00.247Z,4.45
2023-07-28T02:15:28.565Z,4.10
2023-07-28T02:17:56.891Z,3.53
2023-07-28T02:20:26.522Z,4.07
2023-07-28T02:22:54.881Z,4.05
2023-07-28T02:25:23.361Z,4.30
2023-07-28T02:27:52.520Z,4.07
2023-07-28T02:30:20.915Z,3.80
2023-07-28T02:32:49.270Z,4.15
2023-07-28T02:35:19.356Z,4.00
2023-07-28T02:37:51.095Z,3.65
2023-07-28T02:40:19.398Z,4.03
2023-07-28T02:42:47.828Z,3.72
2023-07-28T02:45:16.412Z,4.55
2023-07-28T02:47:44.825Z,4.07
2023-07-28T02:50:13.136Z,3.90
2023-07-28T02:52:41.544Z,4.05
2023-07-28T02:55:11.674Z,4.00
2023-07-28T02:57:40.097Z,3.70
2023-07-28T03:00:11.980Z,3.53
2023-07-28T03:02:40.648Z,4.22
2023-07-28T03:05:10.157Z,3.88
2023-07-28T03:08:09.850Z,3.47
2023-07-28T03:10:39.792Z,3.72
2023-07-28T03:13:08.359Z,3.05
2023-07-28T03:15:36.784Z,2.92
2023-07-28T03:18:05.245Z,3.15
2023-07-28T03:20:33.980Z,3.20
2023-07-28T03:23:02.241Z,2.92
2023-07-28T03:25:30.908Z,3.45
2023-07-28T03:28:00.637Z,3.30
2023-07-28T03:30:29.130Z,3.30
2023-07-28T03:32:57.655Z,3.72
2023-07-28T03:35:26.146Z,3.65
2023-07-28T03:38:03.966Z,3.80
2023-07-28T03:40:34.351Z,3.42
2023-07-28T03:43:05.523Z,3.83
2023-07-28T03:45:34.220Z,3.67
2023-07-28T03:48:02.758Z,3.80
2023-07-28T03:50:31.246Z,3.40
2023-07-28T03:52:59.551Z,3.67
2023-07-28T03:55:28.043Z,4.25
2023-07-28T03:57:56.811Z,3.33
2023-07-28T04:00:26.462Z,4.28
2023-07-28T04:02:54.779Z,3.83
2023-07-28T04:05:25.515Z,3.83
2023-07-28T04:07:54.473Z,3.95
2023-07-28T04:10:23.078Z,3.58
2023-07-28T04:12:51.405Z,3.42
2023-07-28T04:15:19.792Z,4.80
2023-07-28T04:17:49.554Z,4.18
2023-07-28T04:20:18.067Z,4.22
2023-07-28T04:22:46.474Z,4.22
2023-07-28T04:25:14.904Z,4.00
2023-07-28T04:27:47.438Z,3.95
2023-07-28T04:30:15.997Z,3.75
2023-07-28T04:32:44.508Z,3.90
2023-07-28T04:35:18.601Z,4.00
2023-07-28T04:38:07.140Z,3.85
2023-07-28T04:40:47.757Z,4.25
2023-07-28T04:43:22.737Z,4.60
2023-07-28T04:45:55.570Z,4.40
2023-07-28T04:48:25.664Z,4.10
2023-07-28T04:50:55.760Z,4.35
2023-07-28T04:53:26.895Z,4.10
2023-07-28T04:56:10.219Z,4.07
2023-07-28T04:58:38.529Z,4.43
2023-07-28T05:01:09.651Z,3.58
2023-07-28T05:03:38.798Z,3.70
2023-07-28T05:06:22.959Z,4.15
2023-07-28T05:08:51.323Z,4.03
2023-07-28T05:11:26.290Z,3.88
2023-07-28T05:13:54.682Z,4.05
2023-07-28T05:16:23.025Z,3.80
2023-07-28T05:19:10.027Z,3.83
2023-07-28T05:21:58.582Z,3.85
2023-07-28T05:24:46.419Z,4.05
2023-07-28T05:27:15.719Z,3.92
2023-07-28T05:29:47.150Z,4.15
2023-07-28T05:32:15.445Z,3.90
2023-07-28T05:35:03.197Z,4.18
2023-07-28T05:37:32.987Z,3.80
2023-07-28T05:40:01.547Z,3.90
2023-07-28T05:42:30.078Z,4.15
2023-07-28T05:44:58.532Z,4.15
2023-07-28T05:47:26.882Z,4.00
2023-07-28T05:49:55.773Z,4.28
2023-07-28T05:52:25.135Z,3.90
2023-07-28T05:54:55.596Z,4.22
2023-07-28T05:57:24.022Z,3.95
2023-07-28T05:59:53.250Z,3.92
2023-07-28T06:02:21.679Z,4.18
2023-07-28T06:04:55.743Z,4.53
2023-07-28T06:07:31.354Z,4.10
2023-07-28T06:10:01.254Z,4.32
2023-07-28T06:12:29.633Z,4.07
2023-07-28T06:14:57.919Z,4.28
2023-07-28T06:17:28.681Z,4.30
2023-07-28T06:19:57.336Z,3.97
2023-07-28T06:22:25.824Z,4.38
2023-07-28T06:24:54.689Z,4.22
2023-07-28T06:27:24.454Z,4.47
2023-07-28T06:29:52.967Z,4.20
2023-07-28T06:32:24.407Z,4.20
2023-07-28T06:34:53.309Z,4.15
2023-07-28T06:37:21.691Z,4.45
2023-07-28T06:39:50.922Z,4.60
2023-07-28T06:42:24.917Z,4.30
2023-07-28T06:44:59.228Z,4.50
2023-07-28T06:47:27.887Z,4.90
2023-07-28T06:49:57.023Z,4.28
2023-07-28T06:52:25.507Z,4.55
2023-07-28T06:54:55.384Z,5.38
2023-07-28T06:57:23.753Z,5.15
2023-07-28T06:59:53.027Z,4.55
2023-07-28T07:02:22.671Z,4.38
2023-07-28T07:04:51.598Z,4.60
2023-07-28T07:07:19.953Z,4.90
2023-07-28T07:09:48.316Z,5.30
2023-07-28T07:12:16.958Z,5.03
2023-07-28T07:14:45.595Z,5.20
2023-07-28T07:17:14.055Z,4.78
2023-07-28T07:19:43.726Z,4.57
2023-07-28T07:22:12.215Z,4.47
2023-07-28T07:24:41.071Z,4.18
2023-07-28T07:27:12.041Z,4.43
2023-07-28T07:29:40.722Z,4.38
2023-07-28T07:32:12.265Z,4.45
2023-07-28T07:34:40.553Z,4.85
2023-07-28T07:37:11.648Z,4.20
2023-07-28T07:39:42.177Z,4.20
2023-07-28T07:42:12.503Z,4.47
2023-07-28T07:44:40.753Z,3.90
2023-07-28T07:47:15.808Z,3.67
2023-07-28T07:49:44.850Z,4.15
2023-07-28T07:52:14.573Z,3.97
2023-07-28T07:54:42.831Z,4.07
2023-07-28T07:57:11.175Z,3.50
2023-07-28T07:59:39.645Z,3.63
2023-07-28T08:02:08.666Z,3.80
2023-07-28T08:04:46.280Z,3.47
2023-07-28T08:07:23.328Z,3.30
2023-07-28T08:09:52.171Z,3.28
2023-07-28T08:12:26.367Z,3.08
2023-07-28T08:14:57.024Z,3.38
2023-07-28T08:17:25.782Z,3.40
2023-07-28T08:19:54.100Z,2.90
2023-07-28T08:22:23.746Z,2.92
2023-07-28T08:24:52.086Z,2.38
2023-07-28T08:27:20.649Z,2.78
2023-07-28T08:29:49.246Z,2.75
2023-07-28T08:32:18.230Z,2.67
2023-07-28T08:34:46.691Z,2.50
2023-07-28T08:37:14.932Z,2.60
2023-07-28T08:39:44.601Z,2.40
2023-07-28T08:42:13.012Z,2.17
2023-07-28T08:44:41.446Z,1.92
2023-07-28T08:47:10.141Z,2.28
2023-07-28T08:49:38.594Z,2.30
2023-07-28T08:52:08.090Z,2.10
2023-07-28T08:54:36.644Z,2.10
2023-07-28T08:57:07.109Z,2.15
2023-07-28T08:59:36.504Z,2.60
2023-07-28T09:02:07.042Z,2.00
2023-07-28T09:04:35.468Z,2.60
2023-07-28T09:07:07.728Z,2.05
2023-07-28T09:09:37.832Z,2.20
2023-07-28T09:12:09.811Z,2.05
2023-07-28T09:14:39.775Z,1.50
2023-07-28T09:17:12.818Z,1.88
2023-07-28T09:19:54.632Z,1.60
2023-07-28T09:22:23.931Z,1.20
2023-07-28T09:24:54.162Z,1.50
2023-07-28T09:27:30.211Z,1.40
2023-07-28T09:29:59.032Z,1.50
2023-07-28T09:32:34.406Z,1.70
2023-07-28T09:35:12.154Z,1.60
2023-07-28T09:37:43.941Z,1.20
2023-07-28T09:40:15.239Z,1.50
2023-07-28T09:42:52.553Z,1.45
2023-07-28T09:45:35.454Z,1.60
2023-07-28T09:48:09.426Z,1.40
2023-07-28T09:50:41.014Z,1.48
2023-07-28T09:53:12.964Z,1.80
2023-07-28T09:55:43.929Z,1.70
2023-07-28T09:58:18.709Z,2.42
2023-07-28T10:00:47.770Z,2.00
2023-07-28T10:03:16.936Z,1.50
2023-07-28T10:05:47.165Z,1.48
2023-07-28T10:08:16.624Z,1.45
2023-07-28T10:10:45.106Z,1.80
2023-07-28T10:13:24.255Z,1.38
2023-07-28T10:15:55.027Z,1.52
2023-07-28T10:18:24.359Z,1.90
2023-07-28T10:20:52.891Z,1.55
2023-07-28T10:23:24.528Z,1.65
2023-07-28T10:26:01.379Z,1.75
2023-07-28T10:28:33.616Z,1.83
2023-07-28T10:31:04.354Z,1.75
2023-07-28T10:33:36.024Z,1.52
2023-07-28T10:36:17.189Z,2.13
2023-07-28T10:38:46.592Z,2.10
2023-07-28T10:41:18.127Z,1.85
2023-07-28T10:43:48.724Z,1.90
2023-07-28T10:46:20.021Z,2.30
2023-07-28T10:48:50.266Z,2.10
2023-07-28T10:51:26.893Z,1.90
2023-07-28T10:53:59.136Z,2.13
2023-07-28T10:56:28.255Z,2.10
2023-07-28T10:59:03.567Z,2.00
2023-07-28T11:01:35.884Z,1.80
2023-07-28T11:04:13.201Z,1.88
2023-07-28T11:06:45.208Z,1.42
2023-07-28T11:09:15.876Z,2.00
2023-07-28T11:11:47.818Z,1.88
2023-07-28T11:14:19.541Z,1.70
2023-07-28T11:16:50.016Z,1.73
2023-07-28T11:19:26.163Z,1.63
2023-07-28T11:21:56.964Z,1.50
2023-07-28T11:24:27.152Z,1.38
2023-07-28T11:26:56.666Z,1.42
2023-07-28T11:29:26.422Z,1.60
2023-07-28T11:31:55.123Z,1.60
2023-07-28T11:34:23.416Z,1.63
2023-07-28T11:36:52.308Z,1.80
2023-07-28T11:39:22.998Z,1.50
2023-07-28T11:41:55.073Z,1.50
2023-07-28T11:44:25.883Z,1.50
2023-07-28T11:46:56.565Z,1.50
2023-07-28T11:49:25.522Z,1.50
2023-07-28T11:51:56.303Z,1.70
2023-07-28T11:54:28.620Z,1.63
2023-07-28T11:56:59.106Z,1.50
2023-07-28T11:59:29.240Z,1.40
2023-07-28T12:07:12.016Z,1.00
2023-07-28T12:10:02.885Z,1.00
2023-07-28T12:20:40.509Z,1.30
2023-07-28T12:25:42.095Z,1.15
2023-07-28T12:30:44.404Z,1.00
2023-07-28T12:35:50.331Z,1.13
2023-07-28T12:48:26.541Z,1.20
2023-07-28T12:53:26.264Z,1.20
2023-07-28T13:01:03.282Z,0.82
2023-07-28T13:03:32.022Z,0.70
2023-07-28T13:06:01.279Z,0.90
2023-07-28T13:13:32.232Z,1.10
2023-07-28T13:16:02.168Z,0.98
2023-07-28T13:18:32.295Z,0.88
2023-07-28T13:21:00.665Z,1.02
2023-07-28T13:23:28.979Z,1.10
2023-07-28T13:25:57.623Z,1.10
2023-07-28T13:28:26.704Z,1.10
2023-07-28T13:30:55.257Z,1.17
2023-07-28T13:33:25.479Z,1.17
2023-07-28T13:35:53.870Z,1.30
2023-07-28T13:38:22.219Z,1.10
2023-07-28T13:40:50.908Z,1.30
2023-07-28T13:43:19.290Z,1.20
2023-07-28T13:45:47.661Z,1.40
2023-07-28T13:55:57.437Z,1.20
2023-07-28T13:58:26.766Z,1.30
2023-07-28T14:00:55.436Z,1.23
2023-07-28T14:03:23.859Z,1.73
2023-07-28T14:05:53.942Z,1.38
2023-07-28T14:08:22.427Z,1.65
2023-07-28T14:10:50.759Z,1.33
2023-07-28T14:13:21.249Z,1.40
2023-07-28T14:15:49.663Z,1.60
2023-07-28T14:18:18.120Z,1.88
2023-07-28T14:20:46.445Z,1.60
2023-07-28T14:23:28.177Z,2.03
2023-07-28T14:25:56.878Z,2.05
2023-07-28T14:28:25.595Z,1.80
2023-07-28T14:30:54.177Z,1.80
2023-07-28T14:33:22.772Z,1.98
2023-07-28T14:35:51.714Z,1.45
2023-07-28T14:38:20.499Z,2.25
2023-07-28T14:40:53.172Z,2.13
2023-07-28T14:43:21.671Z,2.13
2023-07-28T14:45:52.215Z,1.98
2023-07-28T14:48:20.847Z,2.53
2023-07-28T14:50:49.328Z,2.25
2023-07-28T14:53:33.338Z,1.85
2023-07-28T14:56:04.633Z,2.20
2023-07-28T14:58:33.388Z,1.73
2023-07-28T15:01:02.530Z,1.90
2023-07-28T15:03:32.708Z,1.52
2023-07-28T15:06:02.976Z,1.88
2023-07-28T15:08:32.205Z,1.67
2023-07-28T15:11:02.421Z,1.50
2023-07-28T15:13:30.978Z,1.92
2023-07-28T15:15:59.297Z,2.08
2023-07-28T15:18:27.768Z,2.05
2023-07-28T15:20:57.345Z,2.00
2023-07-28T15:23:27.329Z,2.03
2023-07-28T15:25:58.641Z,1.83
2023-07-28T15:28:28.711Z,1.95
2023-07-28T15:30:57.471Z,1.95
2023-07-28T15:33:26.505Z,1.90
2023-07-28T15:35:54.978Z,1.90
2023-07-28T15:38:23.490Z,2.38
2023-07-28T15:40:51.839Z,2.13
2023-07-28T15:43:20.236Z,2.30
2023-07-28T15:45:53.302Z,2.67
2023-07-28T15:48:22.375Z,2.88
2023-07-28T15:50:52.903Z,2.88
2023-07-28T15:53:21.432Z,2.80
2023-07-28T15:55:49.916Z,3.08
2023-07-28T15:58:18.256Z,2.92
2023-07-28T16:00:46.876Z,3.00
2023-07-28T16:03:16.772Z,2.40
2023-07-28T16:05:45.762Z,2.80
2023-07-28T16:08:24.189Z,2.67
2023-07-28T16:10:52.478Z,2.60
2023-07-28T16:13:22.430Z,2.53
2023-07-28T16:15:50.930Z,2.35
2023-07-28T16:18:21.289Z,2.55
2023-07-28T16:20:49.646Z,2.90
2023-07-28T16:23:18.043Z,2.58
2023-07-28T16:25:48.969Z,2.10
2023-07-28T16:28:17.433Z,2.50
2023-07-28T16:30:47.282Z,2.60
2023-07-28T16:33:15.918Z,2.85
2023-07-28T16:35:45.638Z,2.60
2023-07-28T16:38:14.107Z,2.92
2023-07-28T16:40:42.513Z,2.55
2023-07-28T16:43:10.933Z,2.85
2023-07-28T16:45:39.267Z,2.60
2023-07-28T16:48:07.788Z,2.38
2023-07-28T16:50:36.156Z,2.80
2023-07-28T16:53:05.856Z,2.90
2023-07-28T16:55:34.336Z,2.78
2023-07-28T16:58:02.719Z,3.33
2023-07-28T17:00:31.198Z,3.45
2023-07-28T17:03:00.817Z,2.83
2023-07-28T17:05:29.238Z,2.95
2023-07-28T17:07:57.720Z,3.10
2023-07-28T17:10:27.489Z,3.00
2023-07-28T17:12:56.252Z,3.55
2023-07-28T17:15:38.311Z,2.85
2023-07-28T17:18:08.792Z,2.58
2023-07-28T17:20:42.663Z,2.47
2023-07-28T17:23:12.050Z,2.85
2023-07-28T17:25:42.137Z,2.50
2023-07-28T17:28:10.605Z,2.60
2023-07-28T17:30:38.890Z,2.70
2023-07-28T17:33:07.265Z,2.65
2023-07-28T17:35:35.787Z,2.85
2023-07-28T17:38:04.201Z,3.00
2023-07-28T17:40:32.480Z,2.80
2023-07-28T17:43:02.134Z,3.40
2023-07-28T17:45:30.526Z,2.70
2023-07-28T17:47:58.844Z,2.95
2023-07-28T17:50:27.263Z,2.72
2023-07-28T17:52:56.255Z,2.80
2023-07-28T17:55:24.839Z,2.30
2023-07-28T17:57:53.106Z,2.88
2023-07-28T18:00:23.040Z,2.13
2023-07-28T18:02:51.405Z,2.40
2023-07-28T18:05:27.303Z,2.20
2023-07-28T18:07:56.191Z,2.53
2023-07-28T18:10:24.876Z,2.67
2023-07-28T18:12:53.291Z,2.65
2023-07-28T18:15:22.916Z,2.80
2023-07-28T18:17:51.299Z,2.38
2023-07-28T18:20:19.764Z,2.25
2023-07-28T18:22:48.195Z,2.40
2023-07-28T18:25:16.871Z,2.70
2023-07-28T18:27:45.368Z,2.70
2023-07-28T18:30:16.301Z,3.00
2023-07-28T18:32:46.067Z,2.88
2023-07-28T18:35:14.470Z,2.97
2023-07-28T18:37:42.841Z,3.03
2023-07-28T18:40:12.102Z,3.03
2023-07-28T18:42:40.402Z,2.95
2023-07-28T18:45:11.012Z,3.13
2023-07-28T18:47:39.295Z,3.05
2023-07-28T18:50:10.350Z,2.88
2023-07-28T18:52:39.102Z,3.60
2023-07-28T18:55:09.245Z,3.50
2023-07-28T18:57:37.681Z,3.30
2023-07-28T19:00:08.412Z,3.30
2023-07-28T19:02:36.799Z,4.13
2023-07-28T19:05:05.973Z,4.00
2023-07-28T19:07:35.690Z,4.00
2023-07-28T19:10:04.260Z,4.63
2023-07-28T19:12:32.539Z,3.53
2023-07-28T19:15:00.822Z,4.35
2023-07-28T19:17:29.173Z,3.80
2023-07-28T19:19:57.592Z,4.28
2023-07-28T19:22:25.886Z,4.18
2023-07-28T19:24:55.574Z,3.65
2023-07-28T19:27:23.894Z,4.32
2023-07-28T19:29:53.280Z,4.40
2023-07-28T19:32:21.719Z,4.05
2023-07-28T19:34:49.996Z,4.25
2023-07-28T19:37:22.016Z,4.40
2023-07-28T19:39:55.966Z,4.30
2023-07-28T19:42:24.247Z,4.13
2023-07-28T19:44:52.537Z,4.53
2023-07-28T19:47:21.430Z,4.20
2023-07-28T19:50:02.288Z,3.85
2023-07-28T19:52:38.167Z,3.70
2023-07-28T19:55:09.525Z,3.65
2023-07-28T19:57:37.937Z,4.10
2023-07-28T20:00:10.319Z,3.45
2023-07-28T20:02:38.731Z,4.18
2023-07-28T20:05:08.761Z,3.63
2023-07-28T20:07:38.219Z,3.65
2023-07-28T20:10:08.878Z,3.90
2023-07-28T20:12:37.166Z,3.63
2023-07-28T20:15:08.612Z,3.88
2023-07-28T20:17:36.974Z,3.10
2023-07-28T20:20:06.356Z,3.88
2023-07-28T20:22:34.654Z,3.15
2023-07-28T20:25:03.054Z,2.40
2023-07-28T20:27:33.641Z,3.20
2023-07-28T20:30:01.978Z,3.50
2023-07-28T20:32:32.635Z,3.55
2023-07-28T20:35:02.087Z,3.45
2023-07-28T20:37:30.639Z,3.15
2023-07-28T20:39:59.103Z,2.70
2023-07-28T20:42:28.355Z,3.35
2023-07-28T20:44:58.221Z,3.60
2023-07-28T20:47:27.062Z,3.50
2023-07-28T20:49:55.353Z,3.22
2023-07-28T20:52:23.788Z,3.15
2023-07-28T20:54:52.122Z,3.05
2023-07-28T20:57:20.657Z,3.58
2023-07-28T20:59:49.091Z,3.50
2023-07-28T21:02:18.866Z,2.90
2023-07-28T21:04:47.456Z,3.30
2023-07-28T21:07:15.688Z,3.10
2023-07-28T21:09:43.951Z,2.88
2023-07-28T21:12:12.662Z,3.22
2023-07-28T21:14:40.902Z,2.60
2023-07-28T21:17:09.330Z,2.95
2023-07-28T21:19:39.025Z,2.97
2023-07-28T21:22:07.866Z,3.58
2023-07-28T21:24:36.155Z,3.22
2023-07-28T21:27:04.663Z,2.88
2023-07-28T21:29:32.926Z,2.67
2023-07-28T21:32:01.750Z,2.92
2023-07-28T21:34:30.152Z,2.53
2023-07-28T21:36:59.824Z,2.63
2023-07-28T21:39:28.305Z,2.70
2023-07-28T21:41:58.630Z,3.00
2023-07-28T21:44:27.801Z,3.13
2023-07-28T21:46:56.143Z,2.83
2023-07-28T21:49:24.626Z,3.40
2023-07-28T21:51:52.904Z,3.00
2023-07-28T21:54:22.543Z,3.15
2023-07-28T21:56:50.939Z,2.80
2023-07-28T21:59:19.169Z,2.92
2023-07-28T22:01:47.531Z,3.00
2023-07-28T22:04:17.140Z,2.67
2023-07-28T22:06:57.468Z,2.92
2023-07-28T22:09:27.887Z,3.28
2023-07-28T22:11:56.537Z,3.65
2023-07-28T22:14:24.860Z,3.08
2023-07-28T22:16:53.333Z,3.58
2023-07-28T22:19:23.993Z,3.58
2023-07-28T22:21:53.936Z,3.08
2023-07-28T22:24:22.263Z,3.05
2023-07-28T22:26:51.869Z,2.78
2023-07-28T22:29:20.737Z,2.75
2023-07-28T22:31:49.073Z,2.90
2023-07-28T22:34:17.473Z,2.88
2023-07-28T22:36:45.877Z,2.65
2023-07-28T22:39:15.441Z,2.80
2023-07-28T22:41:43.738Z,2.72
2023-07-28T22:44:13.524Z,3.35
2023-07-28T22:46:41.994Z,3.03
2023-07-28T22:49:10.456Z,3.15
2023-07-28T22:51:38.789Z,3.10
2023-07-28T22:54:07.086Z,3.00
2023-07-28T22:56:35.850Z,3.38
2023-07-28T22:59:04.719Z,3.05
2023-07-28T23:01:34.325Z,3.50
2023-07-28T23:04:02.591Z,2.97
2023-07-28T23:06:31.012Z,2.80
2023-07-28T23:08:59.311Z,3.08
2023-07-28T23:11:27.609Z,2.85
2023-07-28T23:13:56.263Z,2.42
2023-07-28T23:16:24.673Z,1.88
2023-07-28T23:18:54.316Z,2.05
2023-07-28T23:21:22.584Z,2.70
2023-07-28T23:23:50.950Z,2.60
2023-07-28T23:26:20.023Z,2.50
2023-07-28T23:28:48.334Z,2.30
2023-07-28T23:31:18.512Z,2.45
2023-07-28T23:33:47.653Z,2.10
2023-07-28T23:36:17.499Z,1.98
2023-07-28T23:38:45.976Z,1.90
2023-07-28T23:41:16.403Z,2.33
2023-07-28T23:43:45.501Z,2.10
2023-07-28T23:46:14.231Z,2.00
2023-07-28T23:48:42.476Z,2.58
2023-07-28T23:51:10.927Z,2.00
2023-07-28T23:53:40.540Z,1.73
2023-07-28T23:56:09.138Z,1.40
2023-07-28T23:58:37.355Z,1.67
